Albertson, New York
Current Conditions -  °F | °C
As of 9:21 AM on Tuesday 27 Jan 2015 (Local Time) from KJFK Reporting Station
Moderate Snow Moderate Snow  
Wind Chill:   Ceiling: 700
Heat Index: 23°   Visibility: 0.5mi
Dew Point: 18°   Wind: 24mph
Humidity: 80%   Direction: 340°NNW
Pressure: 29.68"   Gusts: 33mph
Location:  40.77°N, 73.65°W
Report Text: KJFK 271421Z 34021G29KT 1/2SM R04R/2400V3500FT SN BLSN VV007 M05/M08 A2968 RMK AO2 PK WND 34029/1419 P0000 $
Loading
Personal Weather Stations






























Interactive Weather Map New forecast layout! Learn more

10-Day Weather Forecast

Advertisements
Track Severe Weather on mobile